Time;durP1;ratioP1;P1;durP2;ratioP2;P2;SDS_P1;SDS_P2;PMS_P1;PMS_P2;Temp;Humidity;BMP_temperature;BMP_pressure;BME280_temperature;BME280_humidity;BME280_pressure;Samples;Min_cycle;Max_cycle;Signal;HPM_P1;HPM_P2
2024/01/31 00:00:22;;;;;;;4.40;2.13;;;;;;;;;;5016450;28;20400;-83
2024/01/31 00:02:48;;;;;;;5.10;2.00;;;;;;;;;;5015965;28;20041;-82
2024/01/31 00:05:14;;;;;;;3.40;1.90;;;;;;;;;;5021085;28;20045;-84
2024/01/31 00:07:41;;;;;;;3.50;1.92;;;;;;;;;;5006086;28;20486;-84
2024/01/31 00:10:08;;;;;;;4.82;2.17;;;;;;;;;;5022675;28;20064;-82
2024/01/31 00:12:33;;;;;;;3.55;2.00;;;;;;;;;;5024128;28;20038;-82
2024/01/31 00:14:59;;;;;;;3.42;1.88;;;;;;;;;;5002274;28;20096;-83
2024/01/31 00:17:24;;;;;;;4.38;1.92;;;;;;;;;;5008541;28;20411;-83
2024/01/31 00:19:50;;;;;;;5.07;1.90;;;;;;;;;;5005380;28;20050;-82
2024/01/31 00:22:15;;;;;;;3.10;1.90;;;;;;;;;;5007382;28;20564;-83
2024/01/31 00:24:41;;;;;;;3.45;2.05;;;;;;;;;;4992173;28;20058;-85
2024/01/31 00:27:06;;;;;;;5.55;1.90;;;;;;;;;;5007213;28;20033;-85
2024/01/31 00:29:32;;;;;;;3.38;2.10;;;;;;;;;;5015962;28;20065;-84
2024/01/31 00:31:57;;;;;;;3.97;1.98;;;;;;;;;;5011657;28;20450;-84
2024/01/31 00:34:22;;;;;;;3.70;1.90;;;;;;;;;;5020038;28;20073;-83
2024/01/31 00:36:48;;;;;;;4.22;2.10;;;;;;;;;;5017941;28;20042;-84
2024/01/31 00:39:14;;;;;;;3.88;2.00;;;;;;;;;;5009751;28;20044;-84
2024/01/31 00:41:39;;;;;;;3.85;2.03;;;;;;;;;;5006162;28;20034;-85
2024/01/31 00:44:05;;;;;;;2.60;1.80;;;;;;;;;;5024295;28;20049;-85
2024/01/31 00:46:30;;;;;;;3.95;1.73;;;;;;;;;;5021698;28;20060;-85
2024/01/31 00:48:56;;;;;;;3.75;1.85;;;;;;;;;;5002157;28;20072;-85
2024/01/31 00:51:21;;;;;;;4.47;2.03;;;;;;;;;;4994308;28;20034;-83
2024/01/31 00:53:47;;;;;;;3.78;2.00;;;;;;;;;;5020802;28;20049;-84
2024/01/31 00:56:13;;;;;;;3.85;2.10;;;;;;;;;;5020008;28;20084;-84
2024/01/31 00:58:38;;;;;;;3.15;1.90;;;;;;;;;;5020378;28;20052;-83
2024/01/31 01:01:04;;;;;;;2.75;1.73;;;;;;;;;;5026280;28;20030;-82
2024/01/31 01:03:30;;;;;;;3.75;1.67;;;;;;;;;;5003853;28;20061;-84
2024/01/31 01:05:55;;;;;;;3.38;1.88;;;;;;;;;;5024727;28;20080;-84
2024/01/31 01:08:21;;;;;;;3.55;1.90;;;;;;;;;;5020437;28;20534;-83
2024/01/31 01:10:46;;;;;;;5.32;1.73;;;;;;;;;;5005206;28;20033;-83
2024/01/31 01:13:12;;;;;;;3.65;1.70;;;;;;;;;;5023227;28;20041;-85
2024/01/31 01:15:37;;;;;;;3.00;1.80;;;;;;;;;;5000258;28;20034;-84
2024/01/31 01:18:03;;;;;;;3.03;1.80;;;;;;;;;;5003974;28;20042;-82
2024/01/31 01:20:28;;;;;;;3.40;1.90;;;;;;;;;;5021703;28;20034;-83
2024/01/31 01:22:55;;;;;;;3.17;1.80;;;;;;;;;;5022566;28;20093;-83
2024/01/31 01:25:21;;;;;;;4.72;2.25;;;;;;;;;;5010667;28;20038;-85
2024/01/31 01:30:20;;;;;;;2.67;1.70;;;;;;;;;;4992889;28;20074;-84
2024/01/31 01:32:46;;;;;;;3.88;2.00;;;;;;;;;;4997794;28;20038;-86
2024/01/31 01:35:13;;;;;;;4.80;1.90;;;;;;;;;;4995667;28;20046;-87
2024/01/31 01:37:39;;;;;;;2.60;1.70;;;;;;;;;;4993551;28;20042;-85
2024/01/31 01:40:05;;;;;;;3.85;1.75;;;;;;;;;;4990845;28;20034;-86
2024/01/31 01:42:31;;;;;;;2.88;1.88;;;;;;;;;;4991925;28;20034;-86
2024/01/31 01:44:56;;;;;;;5.10;1.90;;;;;;;;;;4996862;28;20081;-86
2024/01/31 01:47:24;;;;;;;3.22;1.60;;;;;;;;;;4995605;28;20509;-85
2024/01/31 01:49:49;;;;;;;4.57;1.90;;;;;;;;;;4975986;28;20042;-86
2024/01/31 01:52:15;;;;;;;2.63;1.52;;;;;;;;;;4997385;28;20038;-85
2024/01/31 01:54:41;;;;;;;3.28;1.80;;;;;;;;;;4996064;28;20034;-85
2024/01/31 01:57:07;;;;;;;4.32;1.75;;;;;;;;;;4997067;28;20038;-86
2024/01/31 01:59:34;;;;;;;3.10;1.75;;;;;;;;;;4994345;28;20034;-86
2024/01/31 02:02:00;;;;;;;6.30;1.90;;;;;;;;;;4991135;28;20404;-86
2024/01/31 02:04:28;;;;;;;2.22;1.48;;;;;;;;;;4993768;28;20038;-87
2024/01/31 02:06:54;;;;;;;3.20;1.70;;;;;;;;;;4994221;28;20496;-84
2024/01/31 02:09:20;;;;;;;3.33;1.70;;;;;;;;;;4996192;28;20141;-85
2024/01/31 02:11:45;;;;;;;4.38;1.70;;;;;;;;;;4994189;28;20062;-85
2024/01/31 02:14:11;;;;;;;3.40;1.92;;;;;;;;;;4995782;28;20507;-86
2024/01/31 02:16:37;;;;;;;2.55;1.63;;;;;;;;;;4995116;28;20038;-86
2024/01/31 02:19:02;;;;;;;3.60;1.83;;;;;;;;;;4992851;28;20085;-85
2024/01/31 02:21:28;;;;;;;2.92;1.77;;;;;;;;;;4996309;28;20034;-86
2024/01/31 02:23:54;;;;;;;5.47;1.90;;;;;;;;;;4995911;28;20038;-87
2024/01/31 02:26:20;;;;;;;4.13;1.85;;;;;;;;;;4996163;28;20049;-85
2024/01/31 02:28:45;;;;;;;3.17;1.90;;;;;;;;;;4991601;28;20030;-85
2024/01/31 02:31:11;;;;;;;3.90;1.80;;;;;;;;;;4977539;28;20144;-85
2024/01/31 02:33:36;;;;;;;5.30;2.00;;;;;;;;;;4978952;28;20037;-86
2024/01/31 02:36:02;;;;;;;3.05;1.90;;;;;;;;;;4995974;28;20053;-84
2024/01/31 02:38:27;;;;;;;2.25;1.55;;;;;;;;;;4995895;28;20117;-87
2024/01/31 02:40:53;;;;;;;2.45;1.67;;;;;;;;;;4995961;28;20038;-86
2024/01/31 02:43:18;;;;;;;5.47;1.77;;;;;;;;;;4995852;28;20052;-86
2024/01/31 02:45:44;;;;;;;4.43;1.65;;;;;;;;;;4995817;28;20042;-85
2024/01/31 02:48:09;;;;;;;5.13;1.90;;;;;;;;;;4994097;28;20038;-87
2024/01/31 02:50:35;;;;;;;3.83;1.88;;;;;;;;;;4973651;28;20026;-84
2024/01/31 02:53:01;;;;;;;3.45;1.80;;;;;;;;;;4991866;28;20400;-85
2024/01/31 02:55:26;;;;;;;3.60;1.95;;;;;;;;;;4995481;28;20026;-87
2024/01/31 02:57:52;;;;;;;4.78;2.00;;;;;;;;;;4991670;28;20190;-88
2024/01/31 03:00:18;;;;;;;3.95;1.90;;;;;;;;;;4992133;28;20030;-85
2024/01/31 03:02:43;;;;;;;3.55;1.90;;;;;;;;;;4996076;28;20106;-85
2024/01/31 03:05:10;;;;;;;3.47;1.70;;;;;;;;;;4994072;28;20054;-89
2024/01/31 03:07:35;;;;;;;5.53;1.98;;;;;;;;;;4995868;28;20019;-86
2024/01/31 03:10:01;;;;;;;3.05;1.95;;;;;;;;;;4994245;28;20038;-86
2024/01/31 03:12:27;;;;;;;3.38;1.52;;;;;;;;;;4993617;28;20481;-86
2024/01/31 03:14:52;;;;;;;2.45;1.63;;;;;;;;;;4994608;28;20034;-86
2024/01/31 03:17:17;;;;;;;3.88;1.70;;;;;;;;;;4990923;28;20459;-86
2024/01/31 03:19:43;;;;;;;3.58;1.80;;;;;;;;;;4990027;28;20046;-86
2024/01/31 03:22:09;;;;;;;5.18;1.98;;;;;;;;;;4994294;28;20041;-85
2024/01/31 03:24:34;;;;;;;2.97;1.70;;;;;;;;;;4995914;28;20456;-85
2024/01/31 03:27:00;;;;;;;3.10;1.70;;;;;;;;;;4975946;28;20038;-86
2024/01/31 03:29:26;;;;;;;3.28;1.63;;;;;;;;;;4993066;28;20066;-87
2024/01/31 03:31:51;;;;;;;3.20;1.80;;;;;;;;;;4993775;28;20043;-87
2024/01/31 03:34:17;;;;;;;3.92;1.88;;;;;;;;;;4992830;28;20030;-87
2024/01/31 03:36:43;;;;;;;4.97;1.88;;;;;;;;;;4976168;28;20034;-85
2024/01/31 03:39:08;;;;;;;5.53;1.80;;;;;;;;;;4977492;28;20073;-85
2024/01/31 03:41:34;;;;;;;3.10;1.70;;;;;;;;;;4994287;28;20034;-86
2024/01/31 03:43:59;;;;;;;3.22;1.80;;;;;;;;;;4995574;28;20122;-85
2024/01/31 03:46:25;;;;;;;4.30;2.10;;;;;;;;;;4991613;28;20160;-86
2024/01/31 03:48:51;;;;;;;2.70;1.90;;;;;;;;;;4994426;28;20081;-85
2024/01/31 03:51:21;;;;;;;3.00;1.92;;;;;;;;;;4995222;28;20034;-86
2024/01/31 03:53:50;;;;;;;5.20;1.92;;;;;;;;;;4970309;28;20130;-87
2024/01/31 03:56:16;;;;;;;3.03;1.80;;;;;;;;;;4994181;28;20118;-85
2024/01/31 03:58:44;;;;;;;4.57;1.92;;;;;;;;;;4994610;28;20046;-86
2024/01/31 04:01:14;;;;;;;4.78;2.00;;;;;;;;;;4995483;28;20034;-88
2024/01/31 04:03:43;;;;;;;3.72;1.75;;;;;;;;;;4978109;28;20113;-87
2024/01/31 04:06:15;;;;;;;3.63;1.95;;;;;;;;;;5056529;28;20414;-84
2024/01/31 04:08:40;;;;;;;5.10;2.05;;;;;;;;;;5058399;28;20189;-86
2024/01/31 04:11:06;;;;;;;4.47;1.98;;;;;;;;;;5056484;28;20033;-85
2024/01/31 04:13:31;;;;;;;6.00;1.90;;;;;;;;;;5058273;28;20068;-85
2024/01/31 04:16:00;;;;;;;3.33;1.75;;;;;;;;;;5056347;28;20039;-86
2024/01/31 04:18:25;;;;;;;3.38;1.60;;;;;;;;;;5048156;28;20409;-85
2024/01/31 04:20:51;;;;;;;3.17;1.90;;;;;;;;;;5047156;28;20093;-85
2024/01/31 04:23:16;;;;;;;3.22;1.70;;;;;;;;;;5050206;28;20063;-84
2024/01/31 04:25:42;;;;;;;2.83;1.70;;;;;;;;;;5052862;28;20029;-86
2024/01/31 04:28:07;;;;;;;2.75;1.70;;;;;;;;;;5054746;28;20045;-85
2024/01/31 04:30:33;;;;;;;4.32;1.95;;;;;;;;;;5054927;28;20486;-84
2024/01/31 04:33:01;;;;;;;2.80;1.75;;;;;;;;;;5055969;28;20025;-86
2024/01/31 04:35:28;;;;;;;6.40;2.33;;;;;;;;;;5050697;28;20037;-87
2024/01/31 04:37:53;;;;;;;4.32;1.95;;;;;;;;;;5054515;28;20024;-84
2024/01/31 04:40:19;;;;;;;3.42;1.80;;;;;;;;;;5051782;28;20572;-84
2024/01/31 04:42:46;;;;;;;3.13;1.92;;;;;;;;;;5053607;28;20395;-84
2024/01/31 04:45:12;;;;;;;7.07;2.38;;;;;;;;;;5057169;28;20095;-85
2024/01/31 04:47:38;;;;;;;6.55;2.63;;;;;;;;;;5054400;28;20033;-85
2024/01/31 04:50:04;;;;;;;5.78;2.05;;;;;;;;;;5049155;28;20487;-85
2024/01/31 04:52:29;;;;;;;6.80;2.08;;;;;;;;;;5050441;28;20071;-86
2024/01/31 04:54:55;;;;;;;5.10;2.70;;;;;;;;;;5056129;28;20542;-86
2024/01/31 04:57:21;;;;;;;4.30;2.40;;;;;;;;;;5052947;28;20041;-85
2024/01/31 04:59:46;;;;;;;6.38;2.55;;;;;;;;;;5051463;28;20029;-85
2024/01/31 05:02:12;;;;;;;4.35;2.13;;;;;;;;;;5052507;28;20060;-86
2024/01/31 05:04:39;;;;;;;3.97;2.45;;;;;;;;;;5042177;28;20116;-85
2024/01/31 05:07:05;;;;;;;3.83;2.40;;;;;;;;;;5055488;28;20494;-85
2024/01/31 05:09:31;;;;;;;3.70;2.35;;;;;;;;;;5036715;28;20093;-87
2024/01/31 05:11:56;;;;;;;4.47;2.38;;;;;;;;;;5057071;28;20043;-87
2024/01/31 05:14:22;;;;;;;4.25;2.20;;;;;;;;;;5054952;28;20059;-85
2024/01/31 05:16:48;;;;;;;3.50;2.03;;;;;;;;;;5047078;28;20060;-86
2024/01/31 05:19:13;;;;;;;3.40;2.25;;;;;;;;;;5041690;28;20076;-84
2024/01/31 05:21:45;;;;;;;4.10;2.20;;;;;;;;;;5035800;28;20037;-84
2024/01/31 05:24:12;;;;;;;5.53;2.33;;;;;;;;;;5023491;28;20483;-84
2024/01/31 05:26:37;;;;;;;4.80;2.40;;;;;;;;;;5034958;28;20037;-85
2024/01/31 05:29:03;;;;;;;2.95;2.03;;;;;;;;;;5041096;28;20060;-84
2024/01/31 05:31:28;;;;;;;4.13;2.03;;;;;;;;;;5042210;28;20029;-86
2024/01/31 05:33:53;;;;;;;3.75;1.70;;;;;;;;;;5041296;28;20037;-85
2024/01/31 05:36:19;;;;;;;3.70;1.90;;;;;;;;;;5044577;28;20036;-85
2024/01/31 05:38:44;;;;;;;2.88;1.70;;;;;;;;;;5039051;28;20133;-85
2024/01/31 05:41:10;;;;;;;2.67;1.80;;;;;;;;;;5018209;28;20033;-85
2024/01/31 05:43:36;;;;;;;3.53;1.70;;;;;;;;;;5043862;28;20029;-85
2024/01/31 05:46:01;;;;;;;3.08;1.80;;;;;;;;;;5037062;28;20026;-85
2024/01/31 05:48:27;;;;;;;4.70;2.10;;;;;;;;;;5039200;28;20115;-86
2024/01/31 05:50:52;;;;;;;2.75;1.75;;;;;;;;;;5045110;28;20025;-86
2024/01/31 05:53:18;;;;;;;3.45;1.77;;;;;;;;;;5040250;28;20037;-86
2024/01/31 05:55:43;;;;;;;3.80;1.80;;;;;;;;;;5042159;28;20072;-84
2024/01/31 05:58:09;;;;;;;4.35;1.80;;;;;;;;;;5041249;28;20037;-85
2024/01/31 06:00:34;;;;;;;3.70;1.77;;;;;;;;;;5039274;28;20065;-85
2024/01/31 06:03:00;;;;;;;2.85;1.90;;;;;;;;;;5038357;28;20033;-84
2024/01/31 06:05:25;;;;;;;6.40;3.90;;;;;;;;;;5036484;28;20038;-86
2024/01/31 06:07:50;;;;;;;4.10;2.20;;;;;;;;;;5039981;28;20064;-86
2024/01/31 06:10:16;;;;;;;4.60;2.40;;;;;;;;;;5039867;28;20060;-84
2024/01/31 06:12:41;;;;;;;4.03;2.28;;;;;;;;;;5038134;28;20032;-83
2024/01/31 06:15:08;;;;;;;4.88;2.30;;;;;;;;;;5038947;28;20379;-83
2024/01/31 06:17:33;;;;;;;5.50;2.30;;;;;;;;;;5035390;28;20501;-84
2024/01/31 06:19:59;;;;;;;3.38;2.00;;;;;;;;;;5040956;28;20029;-85
2024/01/31 06:22:24;;;;;;;3.15;1.92;;;;;;;;;;5037280;28;20035;-86
2024/01/31 06:24:50;;;;;;;3.67;1.90;;;;;;;;;;5041702;28;20024;-86
2024/01/31 06:27:15;;;;;;;5.35;2.10;;;;;;;;;;5038264;28;20052;-84
2024/01/31 06:29:41;;;;;;;4.72;1.88;;;;;;;;;;5038049;28;20116;-84
2024/01/31 06:32:06;;;;;;;3.63;1.90;;;;;;;;;;5041052;28;20616;-84
2024/01/31 06:34:32;;;;;;;3.80;2.20;;;;;;;;;;5022791;28;20038;-85
2024/01/31 06:36:57;;;;;;;5.65;2.10;;;;;;;;;;5039099;28;20045;-85
2024/01/31 06:39:23;;;;;;;4.28;2.28;;;;;;;;;;5041197;28;20033;-85
2024/01/31 06:41:48;;;;;;;4.57;2.40;;;;;;;;;;5040904;28;20403;-85
2024/01/31 06:44:14;;;;;;;4.28;2.10;;;;;;;;;;5027883;28;20068;-84
2024/01/31 06:46:39;;;;;;;4.70;2.53;;;;;;;;;;5033365;28;20037;-83
2024/01/31 06:49:05;;;;;;;9.98;3.53;;;;;;;;;;5033095;28;20052;-83
2024/01/31 06:51:31;;;;;;;4.25;2.50;;;;;;;;;;5034292;28;20042;-85
2024/01/31 06:53:58;;;;;;;5.28;2.97;;;;;;;;;;5039927;28;20032;-84
2024/01/31 06:56:24;;;;;;;3.53;2.20;;;;;;;;;;5042490;28;20037;-85
2024/01/31 06:58:51;;;;;;;3.70;2.10;;;;;;;;;;5042156;28;20379;-84
2024/01/31 07:01:17;;;;;;;3.58;2.28;;;;;;;;;;5039201;28;20029;-86
2024/01/31 07:03:44;;;;;;;4.97;2.50;;;;;;;;;;5036079;28;20494;-83
2024/01/31 07:06:10;;;;;;;4.70;2.10;;;;;;;;;;5034427;28;20124;-83
2024/01/31 07:08:36;;;;;;;4.45;2.22;;;;;;;;;;5034745;28;20129;-84
2024/01/31 07:11:01;;;;;;;4.40;2.20;;;;;;;;;;5019785;28;20053;-83
2024/01/31 07:13:27;;;;;;;4.10;2.00;;;;;;;;;;5043063;28;20041;-86
2024/01/31 07:15:52;;;;;;;4.22;1.90;;;;;;;;;;5040393;28;20025;-83
2024/01/31 07:18:18;;;;;;;2.80;1.80;;;;;;;;;;5037303;28;20045;-86
2024/01/31 07:20:43;;;;;;;3.15;2.00;;;;;;;;;;5038473;28;20119;-87
2024/01/31 07:23:09;;;;;;;4.93;2.20;;;;;;;;;;5038826;28;20037;-85
2024/01/31 07:25:38;;;;;;;5.75;2.28;;;;;;;;;;5032488;28;20061;-85
2024/01/31 07:28:04;;;;;;;8.27;2.15;;;;;;;;;;5034657;28;20033;-85
2024/01/31 07:30:29;;;;;;;3.83;2.15;;;;;;;;;;5033760;28;20530;-85
2024/01/31 07:32:54;;;;;;;4.65;2.80;;;;;;;;;;5038814;28;20044;-83
2024/01/31 07:35:24;;;;;;;5.30;2.55;;;;;;;;;;5033296;28;20041;-85
2024/01/31 07:37:50;;;;;;;11.90;2.70;;;;;;;;;;5039956;28;20037;-86
2024/01/31 07:40:15;;;;;;;5.20;2.80;;;;;;;;;;5039559;28;20032;-87
2024/01/31 07:42:41;;;;;;;5.93;2.55;;;;;;;;;;5036310;28;20048;-85
2024/01/31 07:45:07;;;;;;;4.47;2.45;;;;;;;;;;5041302;28;20030;-85
2024/01/31 07:47:32;;;;;;;3.88;2.40;;;;;;;;;;5042552;28;20036;-83
2024/01/31 07:49:58;;;;;;;5.88;2.28;;;;;;;;;;5034862;28;20521;-86
2024/01/31 07:52:23;;;;;;;6.40;2.67;;;;;;;;;;5019805;28;20029;-86
2024/01/31 07:54:49;;;;;;;5.10;2.70;;;;;;;;;;5043041;28;20406;-85
2024/01/31 07:57:14;;;;;;;4.43;2.78;;;;;;;;;;5040887;28;20037;-87
2024/01/31 07:59:40;;;;;;;4.03;2.50;;;;;;;;;;5041309;28;20056;-85
2024/01/31 08:02:05;;;;;;;5.70;3.03;;;;;;;;;;5040892;28;20033;-86
2024/01/31 08:04:31;;;;;;;9.15;3.08;;;;;;;;;;5040880;28;20123;-86
2024/01/31 08:06:56;;;;;;;4.55;2.85;;;;;;;;;;5031590;28;20029;-87
2024/01/31 08:09:23;;;;;;;5.47;2.95;;;;;;;;;;5032667;28;20055;-86
2024/01/31 08:11:48;;;;;;;5.53;2.50;;;;;;;;;;5040032;28;20497;-86
2024/01/31 08:14:14;;;;;;;5.10;2.72;;;;;;;;;;5036145;28;20568;-85
2024/01/31 08:16:39;;;;;;;5.03;2.65;;;;;;;;;;5037412;28;20049;-84
2024/01/31 08:19:05;;;;;;;6.53;2.38;;;;;;;;;;5040277;28;20037;-83
2024/01/31 08:21:33;;;;;;;3.53;2.40;;;;;;;;;;5040101;28;20036;-84
2024/01/31 08:23:59;;;;;;;4.63;2.45;;;;;;;;;;5044519;28;20033;-86
2024/01/31 08:26:25;;;;;;;4.55;2.40;;;;;;;;;;5039276;28;20034;-85
2024/01/31 08:28:50;;;;;;;5.38;2.50;;;;;;;;;;5032832;28;20033;-84
2024/01/31 08:31:16;;;;;;;3.80;2.40;;;;;;;;;;5036808;28;20491;-86
2024/01/31 08:33:41;;;;;;;3.80;2.25;;;;;;;;;;5036428;28;20384;-86
2024/01/31 08:36:08;;;;;;;3.88;2.20;;;;;;;;;;5038405;28;20040;-84
2024/01/31 08:38:35;;;;;;;5.07;2.65;;;;;;;;;;5036084;28;20041;-86
2024/01/31 08:41:02;;;;;;;4.45;2.40;;;;;;;;;;5039771;28;20033;-86
2024/01/31 08:43:27;;;;;;;20.23;4.93;;;;;;;;;;5040398;28;20041;-84
2024/01/31 08:45:53;;;;;;;20.77;4.38;;;;;;;;;;5036678;28;20025;-84
2024/01/31 08:48:19;;;;;;;11.07;3.08;;;;;;;;;;5035094;28;20094;-86
2024/01/31 08:50:45;;;;;;;7.20;3.40;;;;;;;;;;5038208;28;20064;-86
2024/01/31 08:53:10;;;;;;;5.05;2.60;;;;;;;;;;5044412;28;20045;-86
2024/01/31 08:55:36;;;;;;;4.95;2.95;;;;;;;;;;5041648;28;20053;-86
2024/01/31 08:58:02;;;;;;;12.02;3.08;;;;;;;;;;5046865;28;20029;-84
2024/01/31 09:00:29;;;;;;;12.75;4.40;;;;;;;;;;5037705;28;20116;-84
2024/01/31 09:02:55;;;;;;;13.27;4.72;;;;;;;;;;5040431;28;20479;-84
2024/01/31 09:05:21;;;;;;;9.93;4.47;;;;;;;;;;5038128;28;20029;-86
2024/01/31 09:07:46;;;;;;;10.02;4.40;;;;;;;;;;5039255;28;20036;-87
2024/01/31 09:10:12;;;;;;;8.40;3.03;;;;;;;;;;5039002;28;20360;-88
2024/01/31 09:12:37;;;;;;;13.30;6.45;;;;;;;;;;5033472;28;20034;-84
2024/01/31 09:15:03;;;;;;;9.98;4.90;;;;;;;;;;5037547;28;20113;-84
2024/01/31 09:17:29;;;;;;;8.07;3.58;;;;;;;;;;5040947;28;20032;-84
2024/01/31 09:19:54;;;;;;;8.68;3.60;;;;;;;;;;5045764;28;20060;-85
2024/01/31 09:22:20;;;;;;;8.50;3.75;;;;;;;;;;5045489;28;20041;-86
2024/01/31 09:24:45;;;;;;;9.07;3.65;;;;;;;;;;5047444;28;20025;-86
2024/01/31 09:27:11;;;;;;;12.35;3.85;;;;;;;;;;5043190;28;20038;-86
2024/01/31 09:29:36;;;;;;;8.77;3.63;;;;;;;;;;5039457;28;20037;-84
2024/01/31 09:32:02;;;;;;;7.82;3.55;;;;;;;;;;5035265;28;20847;-86
2024/01/31 09:34:28;;;;;;;11.13;3.70;;;;;;;;;;5033092;28;20034;-85
2024/01/31 09:36:54;;;;;;;7.53;2.97;;;;;;;;;;5043084;28;20033;-85
2024/01/31 09:39:19;;;;;;;7.07;3.47;;;;;;;;;;5042310;28;20092;-85
2024/01/31 09:41:45;;;;;;;8.57;3.05;;;;;;;;;;5043131;28;20132;-84
2024/01/31 09:44:11;;;;;;;6.80;2.80;;;;;;;;;;5045897;28;20073;-89
2024/01/31 09:46:40;;;;;;;5.80;3.05;;;;;;;;;;5040319;28;20083;-85
2024/01/31 09:49:05;;;;;;;5.80;2.65;;;;;;;;;;5044731;28;20040;-84
2024/01/31 09:51:32;;;;;;;6.43;3.15;;;;;;;;;;5036007;28;20086;-84
2024/01/31 09:53:59;;;;;;;8.70;3.90;;;;;;;;;;5037573;28;20025;-85
2024/01/31 09:56:27;;;;;;;14.48;3.58;;;;;;;;;;5040727;28;20038;-83
2024/01/31 09:58:56;;;;;;;16.50;3.25;;;;;;;;;;5046849;28;20040;-85
2024/01/31 10:01:25;;;;;;;10.38;3.28;;;;;;;;;;5036114;28;20040;-83
2024/01/31 10:03:51;;;;;;;6.55;3.58;;;;;;;;;;5040472;28;20513;-85
2024/01/31 10:06:17;;;;;;;6.85;3.15;;;;;;;;;;5040047;28;20108;-86
2024/01/31 10:08:42;;;;;;;4.53;2.70;;;;;;;;;;5042440;28;20045;-86
2024/01/31 10:11:08;;;;;;;4.15;2.40;;;;;;;;;;5042650;28;20071;-85
2024/01/31 10:13:33;;;;;;;7.05;2.45;;;;;;;;;;5041891;28;20056;-86
2024/01/31 10:15:59;;;;;;;9.45;2.95;;;;;;;;;;5037600;28;20033;-86
2024/01/31 10:18:27;;;;;;;10.20;3.00;;;;;;;;;;5036528;28;20041;-85
2024/01/31 10:20:53;;;;;;;5.78;2.45;;;;;;;;;;5042742;28;20063;-86
2024/01/31 10:23:19;;;;;;;5.95;2.80;;;;;;;;;;5040006;28;20505;-87
2024/01/31 10:25:45;;;;;;;7.57;2.78;;;;;;;;;;5040737;28;20056;-86
2024/01/31 10:28:11;;;;;;;5.63;2.92;;;;;;;;;;5040524;28;20044;-85
2024/01/31 10:30:46;;;;;;;19.05;2.35;;;;;;;;;;5040633;28;20156;-86
2024/01/31 10:33:12;;;;;;;6.65;1.92;;;;;;;;;;5023656;28;20045;-85
2024/01/31 10:35:40;;;;;;;3.38;1.90;;;;;;;;;;5034143;28;20022;-86
2024/01/31 10:38:07;;;;;;;5.50;1.90;;;;;;;;;;5049456;28;20511;-85
2024/01/31 10:40:37;;;;;;;5.53;2.13;;;;;;;;;;5037120;28;21437;-84
2024/01/31 10:43:03;;;;;;;3.38;1.92;;;;;;;;;;5042818;28;20076;-85
2024/01/31 10:45:34;;;;;;;8.70;2.00;;;;;;;;;;5044788;28;20034;-85
2024/01/31 10:48:00;;;;;;;5.30;1.85;;;;;;;;;;5041882;28;20032;-84
2024/01/31 10:50:26;;;;;;;5.93;2.35;;;;;;;;;;5035359;28;20021;-86
2024/01/31 10:52:53;;;;;;;7.38;2.20;;;;;;;;;;5040137;28;20064;-85
2024/01/31 10:55:21;;;;;;;8.10;3.60;;;;;;;;;;5032621;28;20033;-85
2024/01/31 10:57:48;;;;;;;5.85;2.75;;;;;;;;;;5036529;28;20029;-86
2024/01/31 11:00:30;;;;;;;6.50;3.15;;;;;;;;;;5045341;28;20033;-85
2024/01/31 11:03:00;;;;;;;3.92;2.10;;;;;;;;;;5043036;28;20029;-85
2024/01/31 11:05:30;;;;;;;7.25;2.20;;;;;;;;;;5040962;28;20078;-85
2024/01/31 11:07:55;;;;;;;3.33;1.77;;;;;;;;;;5046273;28;20041;-85
2024/01/31 11:10:22;;;;;;;2.80;1.60;;;;;;;;;;5041413;28;20033;-86
2024/01/31 11:13:00;;;;;;;3.90;1.75;;;;;;;;;;5045332;28;20021;-87
2024/01/31 11:15:34;;;;;;;2.90;1.80;;;;;;;;;;5029319;28;20056;-87
2024/01/31 11:18:09;;;;;;;5.43;1.90;;;;;;;;;;5039526;28;20056;-86
2024/01/31 11:20:38;;;;;;;4.60;1.73;;;;;;;;;;5039652;28;20052;-88
2024/01/31 11:23:05;;;;;;;7.05;2.08;;;;;;;;;;5045298;28;20094;-86
2024/01/31 11:25:37;;;;;;;3.97;2.05;;;;;;;;;;5035819;28;20021;-87
2024/01/31 11:28:04;;;;;;;4.22;2.10;;;;;;;;;;5036567;28;20040;-86
2024/01/31 11:30:31;;;;;;;5.88;2.53;;;;;;;;;;5041016;28;20376;-85
2024/01/31 11:32:59;;;;;;;4.32;2.33;;;;;;;;;;5044418;28;20152;-86
2024/01/31 11:35:25;;;;;;;7.28;2.40;;;;;;;;;;5039789;28;20048;-85
2024/01/31 11:37:58;;;;;;;5.40;2.47;;;;;;;;;;5036676;28;20038;-87
2024/01/31 11:40:24;;;;;;;5.40;2.90;;;;;;;;;;5035581;28;20026;-86
2024/01/31 11:42:54;;;;;;;4.22;2.10;;;;;;;;;;5039243;28;20060;-88
2024/01/31 11:45:26;;;;;;;3.70;1.90;;;;;;;;;;5040273;28;20071;-87
2024/01/31 11:47:56;;;;;;;5.47;3.05;;;;;;;;;;5039985;28;20045;-87
2024/01/31 11:50:22;;;;;;;7.78;2.30;;;;;;;;;;5034702;28;20038;-86
2024/01/31 11:52:49;;;;;;;5.47;1.92;;;;;;;;;;5049748;28;20101;-90
2024/01/31 11:55:20;;;;;;;5.00;2.08;;;;;;;;;;5040523;28;20033;-86
2024/01/31 11:57:45;;;;;;;4.00;2.30;;;;;;;;;;5034951;28;20061;-86
2024/01/31 12:00:12;;;;;;;4.90;2.05;;;;;;;;;;5036710;28;20044;-86
2024/01/31 12:02:37;;;;;;;3.88;2.10;;;;;;;;;;5040144;28;20072;-87
2024/01/31 12:05:03;;;;;;;4.10;2.67;;;;;;;;;;5042491;28;20035;-85
2024/01/31 12:07:29;;;;;;;4.10;2.40;;;;;;;;;;5043112;28;20033;-87
2024/01/31 12:09:54;;;;;;;4.28;2.13;;;;;;;;;;5038365;28;20116;-87
2024/01/31 12:12:20;;;;;;;3.70;2.17;;;;;;;;;;5038390;28;20115;-86
2024/01/31 12:14:45;;;;;;;6.10;2.25;;;;;;;;;;5041781;28;20029;-86
2024/01/31 12:17:21;;;;;;;6.43;2.72;;;;;;;;;;5034841;28;20041;-87
2024/01/31 12:19:47;;;;;;;7.43;4.03;;;;;;;;;;5039267;28;20056;-86
2024/01/31 12:22:13;;;;;;;6.85;3.95;;;;;;;;;;5035917;28;20196;-87
2024/01/31 12:24:38;;;;;;;6.75;3.95;;;;;;;;;;5035495;28;20109;-86
2024/01/31 12:27:04;;;;;;;7.47;3.00;;;;;;;;;;5040854;28;20191;-88
2024/01/31 12:29:31;;;;;;;8.70;3.47;;;;;;;;;;5035459;28;20029;-87
2024/01/31 12:31:57;;;;;;;8.40;3.60;;;;;;;;;;5040205;28;20036;-88
2024/01/31 12:34:22;;;;;;;8.52;3.50;;;;;;;;;;5039773;28;20022;-86
2024/01/31 12:36:48;;;;;;;8.70;3.28;;;;;;;;;;5043449;28;20475;-86
2024/01/31 12:39:19;;;;;;;7.13;3.40;;;;;;;;;;5038290;28;20128;-88
2024/01/31 12:41:45;;;;;;;7.30;3.35;;;;;;;;;;5038837;28;20053;-86
2024/01/31 12:44:11;;;;;;;7.03;3.40;;;;;;;;;;5042289;28;20037;-87
2024/01/31 12:46:39;;;;;;;6.63;3.15;;;;;;;;;;5042995;28;20487;-87
2024/01/31 12:49:05;;;;;;;8.90;3.00;;;;;;;;;;5042941;28;20037;-83
2024/01/31 12:51:30;;;;;;;6.15;3.50;;;;;;;;;;5046139;28;20040;-88
2024/01/31 12:53:56;;;;;;;10.32;3.63;;;;;;;;;;5045741;28;20577;-82
2024/01/31 12:56:21;;;;;;;8.10;3.60;;;;;;;;;;5052273;28;20482;-83
2024/01/31 12:58:47;;;;;;;6.85;3.72;;;;;;;;;;5031827;28;20040;-83
2024/01/31 13:01:14;;;;;;;9.20;4.60;;;;;;;;;;5035252;28;20041;-84
2024/01/31 13:03:40;;;;;;;11.00;3.97;;;;;;;;;;5038179;28;20563;-83
2024/01/31 13:06:06;;;;;;;10.75;4.10;;;;;;;;;;5041740;28;20033;-85
2024/01/31 13:08:35;;;;;;;8.20;4.20;;;;;;;;;;5041895;28;20051;-84
2024/01/31 13:11:03;;;;;;;9.63;4.22;;;;;;;;;;5041010;28;20029;-86
2024/01/31 13:13:28;;;;;;;10.88;3.97;;;;;;;;;;5042374;28;20498;-84
2024/01/31 13:15:54;;;;;;;6.90;4.40;;;;;;;;;;5044175;28;20036;-87
2024/01/31 13:18:19;;;;;;;7.60;4.18;;;;;;;;;;5047951;28;20055;-85
2024/01/31 13:20:45;;;;;;;8.90;5.07;;;;;;;;;;5035270;28;20026;-85
2024/01/31 13:23:10;;;;;;;7.93;4.38;;;;;;;;;;5040877;28;20047;-85
2024/01/31 13:25:36;;;;;;;6.97;4.00;;;;;;;;;;5040306;28;20030;-85
2024/01/31 13:28:01;;;;;;;6.47;3.78;;;;;;;;;;5040314;28;20039;-84
2024/01/31 13:30:27;;;;;;;10.73;4.10;;;;;;;;;;5042385;28;20052;-86
2024/01/31 13:32:53;;;;;;;11.10;4.13;;;;;;;;;;5039178;28;20116;-83
2024/01/31 13:35:18;;;;;;;13.50;4.38;;;;;;;;;;5038409;28;20056;-84
2024/01/31 13:37:44;;;;;;;8.02;3.90;;;;;;;;;;5045923;28;20029;-85
2024/01/31 13:40:10;;;;;;;8.52;3.90;;;;;;;;;;5039574;28;20136;-84
2024/01/31 13:42:35;;;;;;;11.55;4.22;;;;;;;;;;5034189;28;20060;-86
2024/01/31 13:45:01;;;;;;;7.47;4.07;;;;;;;;;;5041903;28;20025;-86
2024/01/31 13:47:28;;;;;;;11.20;4.90;;;;;;;;;;5041969;28;20045;-85
2024/01/31 13:49:54;;;;;;;27.02;19.40;;;;;;;;;;5038479;28;20448;-85
2024/01/31 13:52:19;;;;;;;12.02;6.95;;;;;;;;;;5035012;28;20119;-84
2024/01/31 13:54:45;;;;;;;10.00;4.60;;;;;;;;;;5036174;28;20544;-85
2024/01/31 13:57:11;;;;;;;7.60;4.20;;;;;;;;;;5036613;28;20060;-84
2024/01/31 13:59:36;;;;;;;10.13;4.43;;;;;;;;;;5040279;28;20056;-84
2024/01/31 14:02:03;;;;;;;7.68;4.18;;;;;;;;;;5046213;28;20044;-85
2024/01/31 14:04:29;;;;;;;7.80;3.97;;;;;;;;;;5034220;28;20036;-84
2024/01/31 14:06:54;;;;;;;6.93;3.80;;;;;;;;;;5039004;28;20057;-82
2024/01/31 14:09:21;;;;;;;8.13;4.30;;;;;;;;;;5040467;28;20053;-85
2024/01/31 14:11:47;;;;;;;7.65;4.15;;;;;;;;;;5039158;28;20038;-83
2024/01/31 14:14:12;;;;;;;9.10;3.83;;;;;;;;;;5042939;28;20052;-83
2024/01/31 14:16:38;;;;;;;8.68;4.38;;;;;;;;;;5045753;28;20491;-82
2024/01/31 14:19:03;;;;;;;8.27;4.43;;;;;;;;;;5043561;28;20037;-83
2024/01/31 14:21:29;;;;;;;9.10;3.80;;;;;;;;;;5043080;28;20041;-85
2024/01/31 14:23:55;;;;;;;7.78;4.00;;;;;;;;;;5032266;28;20029;-85
2024/01/31 14:26:20;;;;;;;13.10;5.45;;;;;;;;;;5037091;28;20029;-82
2024/01/31 14:28:46;;;;;;;10.82;4.30;;;;;;;;;;5040519;28;20092;-83
2024/01/31 14:31:11;;;;;;;13.30;4.65;;;;;;;;;;5044080;28;20040;-88
2024/01/31 14:33:37;;;;;;;9.50;4.40;;;;;;;;;;5044505;28;20084;-85
2024/01/31 14:36:03;;;;;;;9.38;4.32;;;;;;;;;;5043114;28;20025;-83